Time;durP1;ratioP1;P1;durP2;ratioP2;P2;SDS_P1;SDS_P2;PMS_P1;PMS_P2;Temp;Humidity;BMP_temperature;BMP_pressure;BME280_temperature;BME280_humidity;BME280_pressure;Samples;Min_cycle;Max_cycle;Signal;HPM_P1;HPM_P2
2022/10/04 00:00:37;;;;;;;10.10;4.00;;;;;;;10.48;83.15;99763.86;215915;1276;142109;-67
2022/10/04 00:06:01;;;;;;;14.00;5.60;;;;;;;10.53;83.32;99767.85;215425;1276;163005;-66
2022/10/04 00:11:18;;;;;;;9.20;4.30;;;;;;;10.54;83.19;99772.58;215657;1276;141473;-66
2022/10/04 00:16:29;;;;;;;5.80;3.00;;;;;;;10.53;83.26;99771.00;215047;1276;141045;-66
2022/10/04 00:21:55;;;;;;;9.80;3.30;;;;;;;10.48;83.13;99767.42;214819;1276;141584;-65
2022/10/04 00:27:21;;;;;;;6.90;2.80;;;;;;;10.46;83.00;99758.76;213084;1276;143106;-63
2022/10/04 00:32:27;;;;;;;9.00;2.60;;;;;;;10.46;83.09;99757.09;214416;1276;142208;-65
2022/10/04 00:37:56;;;;;;;12.60;5.20;;;;;;;10.40;83.02;99751.33;213698;1276;141345;-64
2022/10/04 00:43:22;;;;;;;9.10;3.90;;;;;;;10.40;83.38;99749.66;213141;1276;143100;-65
2022/10/04 00:48:49;;;;;;;4.80;3.40;;;;;;;10.38;83.59;99753.27;213692;1276;140421;-64
2022/10/04 00:54:12;;;;;;;13.40;3.30;;;;;;;10.36;83.60;99757.37;214266;1276;141607;-65
2022/10/04 00:59:41;;;;;;;7.20;3.00;;;;;;;10.34;83.60;99756.70;213758;1276;142219;-64
2022/10/04 01:04:51;;;;;;;12.00;3.60;;;;;;;10.33;83.70;99751.07;213841;1276;142648;-64
2022/10/04 01:10:04;;;;;;;10.00;4.60;;;;;;;10.36;83.73;99747.95;213990;1276;140556;-64
2022/10/04 01:15:15;;;;;;;10.30;4.00;;;;;;;10.34;83.66;99748.71;213040;1276;141113;-65
2022/10/04 01:20:30;;;;;;;16.80;4.10;;;;;;;10.33;83.81;99742.96;213981;1276;141792;-65
2022/10/04 01:25:45;;;;;;;7.70;4.50;;;;;;;10.33;83.89;99741.59;213140;1276;141206;-65
2022/10/04 01:30:49;;;;;;;13.80;4.70;;;;;;;10.33;83.97;99739.92;213252;1276;141122;-65
2022/10/04 01:35:51;;;;;;;10.30;3.70;;;;;;;10.30;83.99;99742.96;214868;1275;140975;-64
2022/10/04 01:41:01;;;;;;;7.30;2.90;;;;;;;10.35;84.15;99746.60;214924;1276;140769;-64
2022/10/04 01:46:22;;;;;;;8.80;3.50;;;;;;;10.38;83.88;99748.36;214815;1276;141228;-64
2022/10/04 01:51:34;;;;;;;4.20;3.00;;;;;;;10.40;83.88;99748.65;214875;1276;140749;-65
2022/10/04 01:56:45;;;;;;;8.00;3.20;;;;;;;10.41;84.04;99745.73;215686;1276;140212;-65
2022/10/04 02:02:01;;;;;;;11.30;4.00;;;;;;;10.43;83.96;99746.60;215326;1276;142275;-65
2022/10/04 02:07:12;;;;;;;7.80;4.40;;;;;;;10.45;83.97;99751.86;215768;1276;142663;-65
2022/10/04 02:12:17;;;;;;;7.80;4.10;;;;;;;10.50;83.88;99756.98;215982;1276;141372;-64
2022/10/04 02:17:25;;;;;;;4.80;2.50;;;;;;;10.54;83.83;99752.58;214008;1276;141446;-64
2022/10/04 02:22:29;;;;;;;11.50;4.40;;;;;;;10.58;83.79;99748.35;215528;1276;141457;-65
2022/10/04 02:27:32;;;;;;;3.50;2.80;;;;;;;10.55;83.51;99750.70;213831;1276;140647;-63
2022/10/04 02:38:16;;;;;;;5.50;3.00;;;;;;;10.46;83.63;99755.29;214827;1275;140642;-64
2022/10/04 02:43:38;;;;;;;13.10;3.20;;;;;;;10.46;83.61;99755.98;213138;1276;140992;-64
2022/10/04 02:48:59;;;;;;;12.00;3.60;;;;;;;10.44;83.50;99754.45;214111;1276;140643;-62
2022/10/04 02:54:06;;;;;;;14.60;4.90;;;;;;;10.41;83.46;99757.80;213259;1276;142347;-64
2022/10/04 02:59:15;;;;;;;7.90;2.70;;;;;;;10.37;83.67;99755.11;213548;1273;140587;-64
2022/10/04 03:04:24;;;;;;;6.30;2.40;;;;;;;10.34;83.56;99747.86;214269;1276;139584;-65
2022/10/04 03:09:28;;;;;;;2.00;1.80;;;;;;;10.32;83.60;99755.89;213693;1276;140648;-64
2022/10/04 03:14:33;;;;;;;7.70;3.00;;;;;;;10.30;83.54;99752.06;213730;1276;140293;-64
2022/10/04 03:19:37;;;;;;;6.90;2.80;;;;;;;10.27;83.46;99750.73;214082;1276;140987;-65
2022/10/04 03:24:46;;;;;;;5.40;3.00;;;;;;;10.23;83.55;99764.11;214668;1276;140161;-64
2022/10/04 03:29:50;;;;;;;7.20;2.80;;;;;;;10.23;83.60;99771.77;214816;1276;140761;-65
2022/10/04 03:35:04;;;;;;;5.60;2.30;;;;;;;10.29;83.76;99781.14;213883;1275;141694;-65
2022/10/04 03:40:08;;;;;;;;;;;;;;;10.24;83.63;99787.54;214899;1276;141322;-64
2022/10/04 03:45:16;;;;;;;10.00;2.70;;;;;;;10.18;83.71;99787.05;216049;1276;126914;-65
2022/10/04 03:50:25;;;;;;;5.70;1.90;;;;;;;10.17;83.55;99791.20;214243;1276;142275;-65
2022/10/04 03:55:34;;;;;;;8.70;2.70;;;;;;;10.18;83.70;99794.25;215865;1276;142658;-65
2022/10/04 04:00:43;;;;;;;10.20;2.70;;;;;;;10.24;83.74;99794.27;215835;1276;142566;-66
2022/10/04 04:05:54;;;;;;;5.10;2.30;;;;;;;10.29;83.70;99794.02;215964;1276;141313;-65
2022/10/04 04:11:01;;;;;;;9.20;2.60;;;;;;;10.35;83.72;99790.71;214436;1276;141594;-63
2022/10/04 04:16:04;;;;;;;8.80;2.50;;;;;;;10.38;83.51;99791.64;214930;1276;141267;-64
2022/10/04 04:21:08;;;;;;;8.20;2.90;;;;;;;10.41;83.81;99795.19;214766;1276;141137;-65
2022/10/04 04:26:13;;;;;;;5.30;3.70;;;;;;;10.40;83.61;99798.17;214842;1276;139741;-65
2022/10/04 04:31:28;;;;;;;16.30;4.10;;;;;;;10.38;83.40;99799.89;214114;1276;221687;-64
2022/10/04 04:36:39;;;;;;;10.90;5.60;;;;;;;10.36;83.52;99807.35;213779;1276;141748;-66
2022/10/04 04:41:42;;;;;;;6.20;3.20;;;;;;;10.37;83.39;99811.64;213801;1277;140486;-64
2022/10/04 04:46:55;;;;;;;5.50;3.10;;;;;;;10.33;83.39;99813.96;214209;1276;140439;-65
2022/10/04 04:51:58;;;;;;;11.40;3.30;;;;;;;10.33;83.53;99819.13;213305;1277;140814;-64
2022/10/04 04:57:01;;;;;;;10.30;3.50;;;;;;;10.33;83.50;99825.14;214398;1276;140634;-64
2022/10/04 05:02:02;;;;;;;8.90;4.00;;;;;;;10.31;83.79;99833.78;213629;1277;140190;-63
2022/10/04 05:07:18;;;;;;;10.20;4.10;;;;;;;10.32;83.50;99844.84;213726;1276;141505;-65
2022/10/04 05:12:22;;;;;;;11.70;5.30;;;;;;;10.26;83.46;99842.52;213706;1277;141287;-65
2022/10/04 05:17:32;;;;;;;12.40;4.20;;;;;;;10.27;83.67;99847.16;214613;1276;141830;-66
2022/10/04 05:22:46;;;;;;;6.10;3.30;;;;;;;10.31;83.69;99848.95;213132;1276;141593;-65
2022/10/04 05:27:50;;;;;;;18.60;11.90;;;;;;;10.33;83.78;99858.23;213164;1276;141804;-66
2022/10/04 05:33:02;;;;;;;7.50;3.90;;;;;;;10.40;83.86;99862.82;214364;1276;142067;-65
2022/10/04 05:38:23;;;;;;;9.30;4.70;;;;;;;10.43;83.90;99872.48;214529;1276;140826;-65
2022/10/04 05:43:37;;;;;;;10.80;4.90;;;;;;;10.42;83.66;99879.00;214602;1276;140658;-66
2022/10/04 05:48:42;;;;;;;4.30;3.50;;;;;;;10.41;83.57;99884.69;215035;1276;143652;-66
2022/10/04 05:53:46;;;;;;;5.70;3.10;;;;;;;10.51;83.72;99886.38;215730;1276;141802;-66
2022/10/04 05:59:13;;;;;;;7.60;3.60;;;;;;;10.62;83.64;99888.20;215297;1277;142652;-65
2022/10/04 06:04:34;;;;;;;9.40;3.40;;;;;;;10.70;83.31;99893.53;215748;1276;140750;-67
2022/10/04 06:09:59;;;;;;;6.20;3.90;;;;;;;10.77;83.17;99902.91;215989;1276;142053;-67
2022/10/04 06:15:32;;;;;;;15.40;4.00;;;;;;;10.83;83.27;99903.34;216035;1276;140751;-66
2022/10/04 06:20:47;;;;;;;4.70;2.90;;;;;;;10.94;83.21;99912.80;213660;1277;141129;-64
2022/10/04 06:26:19;;;;;;;11.50;5.10;;;;;;;10.94;82.97;99923.38;214375;1277;141284;-64
2022/10/04 06:31:46;;;;;;;9.20;4.40;;;;;;;10.86;82.64;99932.09;213418;1276;142015;-64
2022/10/04 06:36:51;;;;;;;5.60;3.40;;;;;;;10.81;82.85;99939.86;214450;1276;142275;-65
2022/10/04 06:42:01;;;;;;;7.80;3.80;;;;;;;10.82;83.01;99947.66;214499;1276;141500;-67
2022/10/04 06:47:18;;;;;;;4.70;3.20;;;;;;;10.83;82.89;99953.14;213385;1276;141771;-67
2022/10/04 06:52:40;;;;;;;5.80;4.20;;;;;;;10.81;82.81;99957.69;214904;1276;141890;-66
2022/10/04 06:58:12;;;;;;;7.90;3.40;;;;;;;10.86;82.98;99966.59;213947;1276;140189;-65
2022/10/04 07:03:26;;;;;;;7.40;3.30;;;;;;;10.93;82.73;99976.84;213326;1276;140099;-66
2022/10/04 07:08:41;;;;;;;6.30;3.60;;;;;;;10.93;82.78;99974.89;213194;1276;139940;-66
2022/10/04 07:14:18;;;;;;;4.80;2.60;;;;;;;10.95;82.93;99980.05;214121;1276;233929;-66
2022/10/04 07:19:46;;;;;;;8.30;3.70;;;;;;;10.97;82.80;99990.92;213647;1276;140283;-68
2022/10/04 07:25:04;;;;;;;10.40;3.90;;;;;;;10.94;82.50;100000.23;213327;1276;140456;-66
2022/10/04 07:30:19;;;;;;;4.80;3.00;;;;;;;11.03;82.92;99999.91;213643;1276;141903;-67
2022/10/04 07:35:45;;;;;;;8.80;4.50;;;;;;;11.15;82.68;100011.77;212897;1276;141434;-66
2022/10/04 07:41:28;;;;;;;10.90;4.40;;;;;;;11.16;82.37;100010.67;213832;1276;143003;-67
2022/10/04 07:46:37;;;;;;;5.90;4.40;;;;;;;11.18;82.40;100012.84;213139;1276;141779;-65
2022/10/04 07:51:56;;;;;;;6.80;3.90;;;;;;;11.20;82.36;100015.84;214738;1276;141233;-66
2022/10/04 07:57:00;;;;;;;5.40;3.90;;;;;;;11.28;82.11;100022.31;215623;1276;140286;-67
2022/10/04 08:02:40;;;;;;;10.60;5.00;;;;;;;11.29;81.93;100026.45;215705;1276;140876;-65
2022/10/04 08:08:05;;;;;;;12.60;4.50;;;;;;;11.35;82.04;100036.70;213611;1276;140933;-66
2022/10/04 08:13:19;;;;;;;4.80;3.90;;;;;;;11.36;81.58;100039.35;215604;1276;141545;-70
2022/10/04 08:18:38;;;;;;;14.70;5.70;;;;;;;11.36;81.89;100049.94;215864;1276;140384;-66
2022/10/04 08:24:01;;;;;;;8.50;4.40;;;;;;;11.47;81.61;100053.06;215697;1276;140824;-67
2022/10/04 08:29:44;;;;;;;6.30;5.00;;;;;;;11.78;81.48;100060.14;214254;1276;141044;-66
2022/10/04 08:35:00;;;;;;;9.10;4.70;;;;;;;12.05;81.26;100068.34;214339;1276;141278;-66
2022/10/04 08:40:17;;;;;;;3.30;3.00;;;;;;;12.16;80.74;100073.88;214268;1277;140996;-66
2022/10/04 08:45:37;;;;;;;;;;;;;;;12.26;80.12;100074.69;213841;1276;140520;-65
2022/10/04 08:50:54;;;;;;;7.90;5.40;;;;;;;12.36;80.19;100077.62;214899;1276;127716;-67
2022/10/04 08:55:59;;;;;;;15.20;6.00;;;;;;;12.53;80.29;100078.11;214232;1276;140243;-68
2022/10/04 09:01:27;;;;;;;7.10;3.90;;;;;;;12.57;79.91;100083.69;213716;1276;141071;-66
2022/10/04 09:06:35;;;;;;;7.50;4.30;;;;;;;12.74;79.64;100088.18;214227;1276;142838;-66
2022/10/04 09:11:43;;;;;;;8.50;3.90;;;;;;;12.85;79.14;100089.75;213108;1277;141913;-67
2022/10/04 09:17:01;;;;;;;5.40;3.90;;;;;;;13.02;79.09;100092.30;213763;1276;142569;-66
2022/10/04 09:22:41;;;;;;;4.60;3.40;;;;;;;13.21;79.20;100096.75;213045;1276;211279;-66
2022/10/04 09:28:25;;;;;;;7.10;3.90;;;;;;;13.29;78.61;100100.80;213040;1276;143267;-68
2022/10/04 09:33:41;;;;;;;5.50;4.50;;;;;;;13.25;78.15;100104.92;211917;1284;142141;-66
2022/10/04 09:39:04;;;;;;;8.60;4.00;;;;;;;13.22;78.13;100115.09;213847;1277;141260;-65
2022/10/04 09:44:28;;;;;;;6.20;2.70;;;;;;;13.45;78.13;100116.38;213201;1275;142206;-66
2022/10/04 09:50:12;;;;;;;3.80;3.00;;;;;;;13.73;77.70;100117.52;214842;1276;140373;-65
2022/10/04 09:55:41;;;;;;;3.00;2.40;;;;;;;14.10;77.15;100121.21;214794;1276;708252;-69
2022/10/04 10:01:21;;;;;;;4.10;2.50;;;;;;;14.25;76.19;100129.31;213843;1276;236004;-65
2022/10/04 10:06:51;;;;;;;5.20;2.50;;;;;;;14.20;75.44;100129.83;215510;1276;140406;-68
2022/10/04 10:18:13;;;;;;;3.10;2.80;;;;;;;14.01;74.60;100142.23;215401;1274;141075;-67
2022/10/04 10:23:46;;;;;;;4.40;2.00;;;;;;;13.95;74.27;100147.83;215894;1276;140765;-64
2022/10/04 10:29:06;;;;;;;5.70;2.00;;;;;;;13.97;73.93;100151.77;214652;1275;141817;-65
2022/10/04 10:34:24;;;;;;;6.90;2.20;;;;;;;14.15;74.10;100156.19;212989;1276;140368;-64
2022/10/04 10:40:18;;;;;;;3.40;2.30;;;;;;;14.42;73.61;100160.90;213443;1276;139828;-65
2022/10/04 10:45:44;;;;;;;8.00;2.30;;;;;;;14.72;73.30;100166.86;213298;1276;149991;-65
2022/10/04 10:51:02;;;;;;;7.90;2.80;;;;;;;14.97;72.58;100166.33;213848;1276;140789;-66
2022/10/04 10:56:18;;;;;;;3.00;2.10;;;;;;;15.02;72.39;100168.73;214573;1276;140281;-65
2022/10/04 11:01:49;;;;;;;2.50;1.70;;;;;;;15.12;71.44;100168.52;214128;1275;140413;-64
2022/10/04 11:06:55;;;;;;;3.10;2.00;;;;;;;15.00;70.90;100174.39;214546;1276;141910;-67
2022/10/04 11:12:30;;;;;;;4.60;1.70;;;;;;;15.08;70.64;100175.88;213302;1276;140876;-66
2022/10/04 11:17:58;;;;;;;8.20;1.60;;;;;;;15.33;70.42;100176.65;213763;1275;141576;-65
2022/10/04 11:23:33;;;;;;;1.40;1.00;;;;;;;15.47;70.13;100187.73;213656;1276;141192;-66
2022/10/04 11:28:45;;;;;;;2.90;1.70;;;;;;;15.45;69.51;100191.38;213354;1276;140914;-65
2022/10/04 11:34:10;;;;;;;1.60;1.00;;;;;;;15.74;68.90;100191.80;213869;1276;140820;-67
2022/10/04 11:39:54;;;;;;;1.40;1.30;;;;;;;15.93;68.65;100198.82;213487;1276;140844;-67
2022/10/04 11:44:58;;;;;;;2.80;1.90;;;;;;;15.82;67.81;100209.07;213906;1276;141518;-66
2022/10/04 11:50:21;;;;;;;1.50;1.40;;;;;;;15.49;67.45;100215.77;214469;1274;141819;-66
2022/10/04 11:55:53;;;;;;;4.20;2.10;;;;;;;15.22;67.20;100217.33;213718;1276;140880;-66
2022/10/04 12:01:14;;;;;;;2.10;1.40;;;;;;;15.03;67.11;100215.02;213231;1276;141306;-65
2022/10/04 12:06:56;;;;;;;1.20;1.20;;;;;;;15.25;67.21;100212.85;214547;1276;141663;-69
2022/10/04 12:12:36;;;;;;;5.10;1.50;;;;;;;15.44;66.93;100221.19;215376;1275;142593;-65
2022/10/04 12:18:05;;;;;;;3.10;1.80;;;;;;;15.30;66.36;100225.19;215761;1275;141453;-66
2022/10/04 12:23:29;;;;;;;4.10;1.20;;;;;;;15.47;66.66;100219.07;215766;1276;141144;-67
2022/10/04 12:28:56;;;;;;;1.80;1.70;;;;;;;15.48;66.32;100219.83;215575;1276;142351;-66
2022/10/04 12:34:13;;;;;;;1.60;1.50;;;;;;;15.69;66.38;100224.06;213229;1276;140224;-65
2022/10/04 12:39:27;;;;;;;2.50;1.50;;;;;;;16.05;66.45;100223.48;214406;1276;142288;-66
2022/10/04 12:44:44;;;;;;;2.10;1.90;;;;;;;16.03;65.91;100225.45;212936;1276;140237;-66
2022/10/04 12:50:03;;;;;;;4.80;1.40;;;;;;;16.07;65.92;100226.09;214490;1276;142264;-64
2022/10/04 12:55:25;;;;;;;4.60;1.40;;;;;;;16.01;65.05;100227.27;214486;1276;140154;-65
2022/10/04 13:00:39;;;;;;;2.30;1.70;;;;;;;15.72;64.85;100240.12;213273;1276;140182;-65
2022/10/04 13:05:49;;;;;;;8.40;1.70;;;;;;;15.54;64.81;100243.54;213783;1276;140883;-67
2022/10/04 13:11:25;;;;;;;4.60;1.60;;;;;;;15.60;65.00;100235.33;213102;1276;139996;-65
2022/10/04 13:16:33;;;;;;;;;;;;;;;15.27;64.85;100231.98;213031;1276;140716;-64
2022/10/04 13:22:08;;;;;;;2.30;1.60;;;;;;;14.93;65.12;100230.86;214387;1276;127151;-65
2022/10/04 13:27:18;;;;;;;4.30;1.90;;;;;;;14.75;65.42;100230.38;212977;1276;142374;-63
2022/10/04 13:32:32;;;;;;;2.60;2.10;;;;;;;14.75;65.82;100232.36;213607;1276;140922;-67
2022/10/04 13:38:05;;;;;;;3.90;1.60;;;;;;;14.71;66.01;100232.73;214028;1276;140270;-67
2022/10/04 13:43:40;;;;;;;2.50;1.50;;;;;;;14.59;66.14;100236.25;214148;1275;141197;-65
2022/10/04 13:48:49;;;;;;;4.50;1.70;;;;;;;14.56;66.12;100239.53;214627;1276;141472;-68
2022/10/04 13:59:48;;;;;;;4.10;1.80;;;;;;;14.99;66.36;100242.80;214270;1276;141915;-65
2022/10/04 14:05:30;;;;;;;4.40;1.70;;;;;;;15.29;66.12;100242.43;214949;1276;141462;-66
2022/10/04 14:10:46;;;;;;;1.80;1.20;;;;;;;15.66;65.63;100242.75;214898;1276;150952;-66
2022/10/04 14:16:23;;;;;;;1.50;1.20;;;;;;;15.79;64.66;100248.66;215761;1276;140714;-66
2022/10/04 14:22:13;;;;;;;2.10;1.60;;;;;;;15.90;64.32;100255.27;215827;1275;140111;-66
2022/10/04 14:27:42;;;;;;;4.40;2.20;;;;;;;15.97;64.11;100255.79;214288;1276;139821;-66
2022/10/04 14:32:57;;;;;;;1.00;1.00;;;;;;;15.96;63.83;100259.55;215202;1276;141760;-66
2022/10/04 14:38:13;;;;;;;6.80;1.90;;;;;;;15.90;63.79;100259.94;215210;1276;139832;-66
2022/10/04 14:44:07;;;;;;;7.10;1.90;;;;;;;15.80;63.73;100265.34;214722;1276;141655;-66
2022/10/04 14:49:27;;;;;;;7.60;2.10;;;;;;;15.69;63.65;100261.20;213371;1276;141945;-66
2022/10/04 14:54:35;;;;;;;4.50;2.20;;;;;;;15.69;63.85;100259.70;213535;1276;142049;-66
2022/10/04 15:00:00;;;;;;;4.80;2.20;;;;;;;15.61;63.92;100264.04;213421;1276;141893;-67
2022/10/04 15:05:33;;;;;;;1.50;1.20;;;;;;;15.42;64.12;100268.23;214264;1273;141072;-67
2022/10/04 15:10:49;;;;;;;5.60;1.60;;;;;;;15.15;63.76;100271.08;213961;1275;141019;-67
2022/10/04 15:16:12;;;;;;;5.30;1.80;;;;;;;15.01;64.05;100273.48;214502;1276;141149;-68
2022/10/04 15:21:39;;;;;;;7.20;2.60;;;;;;;14.85;64.37;100279.89;213028;1274;140614;-66
2022/10/04 15:27:15;;;;;;;3.40;2.40;;;;;;;14.78;64.76;100282.38;213178;1275;140187;-66
2022/10/04 15:33:01;;;;;;;2.30;1.50;;;;;;;14.64;64.99;100284.34;212991;1277;140611;-66
2022/10/04 15:38:32;;;;;;;2.40;1.70;;;;;;;14.41;65.16;100289.09;213925;1276;141791;-65
2022/10/04 15:44:14;;;;;;;3.90;1.70;;;;;;;14.20;65.53;100291.77;213202;1276;142494;-66
2022/10/04 15:49:35;;;;;;;3.70;1.90;;;;;;;14.02;66.08;100297.70;213769;1276;140732;-66
2022/10/04 15:55:18;;;;;;;3.80;1.60;;;;;;;13.87;66.86;100300.29;213123;1276;141248;-66
2022/10/04 16:00:42;;;;;;;10.40;2.40;;;;;;;13.73;67.10;100303.29;214534;1276;142627;-65
2022/10/04 16:06:28;;;;;;;8.70;2.10;;;;;;;13.58;67.24;100306.81;213877;1276;141654;-64
2022/10/04 16:12:08;;;;;;;2.70;1.90;;;;;;;13.40;67.55;100310.02;215892;1276;140731;-65
2022/10/04 16:17:45;;;;;;;6.20;2.20;;;;;;;13.23;67.37;100318.63;215610;1276;140749;-65
2022/10/04 16:23:35;;;;;;;2.50;1.70;;;;;;;13.04;67.45;100319.95;215735;1276;140244;-69
2022/10/04 16:29:12;;;;;;;5.70;2.10;;;;;;;12.83;67.78;100331.90;215534;1276;139720;-64
2022/10/04 16:34:46;;;;;;;5.20;2.20;;;;;;;12.62;67.81;100338.45;215613;1276;140096;-66
2022/10/04 16:40:07;;;;;;;4.90;2.90;;;;;;;12.46;67.99;100345.15;214649;1276;140538;-65
2022/10/04 16:45:10;;;;;;;2.70;2.50;;;;;;;12.29;68.18;100350.61;214202;1276;140227;-65
2022/10/04 16:50:52;;;;;;;7.60;2.50;;;;;;;12.07;68.39;100348.80;213513;1276;139791;-66
2022/10/04 16:56:03;;;;;;;4.80;2.80;;;;;;;11.77;68.68;100349.27;213203;1276;140487;-65
2022/10/04 17:01:40;;;;;;;8.20;2.90;;;;;;;11.55;68.90;100348.54;214341;1276;140092;-64
2022/10/04 17:06:47;;;;;;;3.10;2.20;;;;;;;11.31;69.32;100351.73;214010;1276;141298;-65
2022/10/04 17:12:23;;;;;;;4.30;2.40;;;;;;;11.18;69.50;100349.59;214410;1276;139834;-65
2022/10/04 17:17:30;;;;;;;5.90;2.40;;;;;;;10.99;69.81;100354.07;214278;1276;139700;-66
2022/10/04 17:23:02;;;;;;;5.00;2.90;;;;;;;10.85;70.23;100350.23;213789;1276;141186;-66
2022/10/04 17:28:37;;;;;;;7.40;2.90;;;;;;;10.64;70.12;100353.61;215360;1276;140588;-66
2022/10/04 17:34:12;;;;;;;5.70;3.00;;;;;;;10.46;70.45;100350.23;215285;1276;140948;-66
2022/10/04 17:39:43;;;;;;;7.70;2.70;;;;;;;10.36;70.63;100355.84;215342;1276;143258;-66
2022/10/04 17:45:23;;;;;;;11.10;4.10;;;;;;;10.27;70.90;100356.86;215377;1276;141899;-67
2022/10/04 17:56:10;;;;;;;6.80;2.40;;;;;;;9.99;71.24;100360.11;215314;1276;140133;-65
2022/10/04 18:01:40;;;;;;;5.50;1.70;;;;;;;9.88;71.24;100359.20;215193;1276;141085;-65
2022/10/04 18:07:03;;;;;;;2.50;2.30;;;;;;;9.80;71.53;100363.95;215504;1276;140971;-65
2022/10/04 18:12:37;;;;;;;3.30;2.80;;;;;;;9.73;71.91;100373.95;215431;1276;140475;-65
2022/10/04 18:17:45;;;;;;;5.00;2.10;;;;;;;9.61;71.89;100377.73;215421;1276;140701;-65
2022/10/04 18:22:49;;;;;;;5.20;2.60;;;;;;;9.45;71.94;100385.23;215445;1276;141295;-66
2022/10/04 18:28:05;;;;;;;3.30;2.50;;;;;;;9.37;72.17;100392.19;215389;1276;144734;-65
2022/10/04 18:33:23;;;;;;;7.30;2.90;;;;;;;9.29;72.22;100400.35;215490;1276;141943;-66
2022/10/04 18:38:29;;;;;;;2.60;2.20;;;;;;;9.16;72.41;100407.32;215492;1275;142166;-66
2022/10/04 18:43:40;;;;;;;11.90;2.60;;;;;;;9.02;72.47;100418.84;215341;1276;140129;-66
2022/10/04 18:48:55;;;;;;;7.10;3.00;;;;;;;8.92;72.57;100422.41;215689;1275;140374;-65
2022/10/04 18:54:05;;;;;;;3.30;3.00;;;;;;;8.82;72.64;100425.02;215464;1277;141576;-65
2022/10/04 19:04:48;;;;;;;5.60;2.90;;;;;;;8.66;72.81;100433.23;214966;1276;140595;-65
2022/10/04 19:10:12;;;;;;;10.20;3.00;;;;;;;8.51;72.71;100429.52;215408;1276;140420;-64
2022/10/04 19:15:40;;;;;;;4.50;2.50;;;;;;;8.33;73.09;100435.80;214996;1276;141302;-64
2022/10/04 19:21:05;;;;;;;2.40;2.20;;;;;;;8.21;73.00;100440.39;215366;1275;141932;-64
2022/10/04 19:26:18;;;;;;;8.70;3.40;;;;;;;8.17;73.17;100441.36;215450;1276;141579;-64
2022/10/04 19:32:12;;;;;;;6.80;3.70;;;;;;;8.10;73.17;100449.30;215245;1276;139685;-63
2022/10/04 19:37:24;;;;;;;4.60;3.70;;;;;;;7.99;73.80;100457.27;214801;1276;141036;-64
2022/10/04 19:42:31;;;;;;;3.80;3.30;;;;;;;7.96;73.96;100448.56;214314;1276;142532;-63
2022/10/04 19:47:53;;;;;;;;;;;;;;;7.92;74.22;100448.54;214769;1276;141538;-62
2022/10/04 19:53:14;;;;;;;6.20;5.00;;;;;;;7.85;74.37;100451.23;216093;1276;127065;-63
2022/10/04 19:58:30;;;;;;;7.40;4.70;;;;;;;7.79;74.77;100451.63;215609;1276;139651;-67
2022/10/04 20:03:33;;;;;;;;;;;;;;;7.76;74.50;100457.70;213952;1276;141261;-64
2022/10/04 20:08:52;;;;;;;6.70;4.10;;;;;;;7.71;74.64;100467.02;213078;1276;196565;-63
2022/10/04 20:14:22;;;;;;;7.90;5.00;;;;;;;7.70;75.04;100466.21;215473;1276;141709;-67
2022/10/04 20:19:28;;;;;;;8.00;4.60;;;;;;;7.57;74.97;100468.61;215374;1276;140155;-67
2022/10/04 20:24:37;;;;;;;10.30;5.30;;;;;;;7.46;74.81;100474.30;215483;1276;140555;-67
2022/10/04 20:29:40;;;;;;;10.00;6.10;;;;;;;7.39;74.93;100465.09;215569;1276;140999;-67
2022/10/04 20:34:43;;;;;;;9.20;6.10;;;;;;;7.30;74.95;100462.73;215535;1276;141161;-67
2022/10/04 20:39:46;;;;;;;15.10;7.10;;;;;;;7.25;74.87;100465.67;215415;1276;141408;-67
2022/10/04 20:45:02;;;;;;;12.20;6.70;;;;;;;7.17;74.86;100476.59;215386;1276;140008;-66
2022/10/04 20:50:13;;;;;;;18.50;8.10;;;;;;;7.09;75.37;100477.42;215219;1276;141463;-67
2022/10/04 20:55:27;;;;;;;8.50;7.20;;;;;;;7.09;75.23;100483.71;215330;1276;142240;-67
2022/10/04 21:00:34;;;;;;;16.10;8.20;;;;;;;7.12;75.83;100487.92;215709;1276;141530;-66
2022/10/04 21:05:38;;;;;;;20.10;8.30;;;;;;;7.12;76.44;100484.88;214426;1277;140307;-64
2022/10/04 21:11:01;;;;;;;15.60;11.80;;;;;;;7.08;76.43;100477.50;215611;1276;141564;-63
2022/10/04 21:16:04;;;;;;;17.50;10.40;;;;;;;7.08;76.78;100473.90;215382;1277;140467;-66
2022/10/04 21:21:07;;;;;;;17.00;8.50;;;;;;;7.12;76.89;100482.38;213590;1277;142094;-63
2022/10/04 21:26:21;;;;;;;15.20;9.70;;;;;;;7.23;77.05;100488.54;215471;1277;141626;-63
2022/10/04 21:31:25;;;;;;;16.00;10.00;;;;;;;7.38;77.73;100479.80;215410;1276;141583;-63
2022/10/04 21:36:27;;;;;;;14.20;10.30;;;;;;;7.53;78.03;100482.23;215521;1277;140704;-63
2022/10/04 21:41:29;;;;;;;15.00;10.30;;;;;;;7.63;77.86;100481.90;213705;1277;140663;-64
2022/10/04 21:46:32;;;;;;;18.40;10.70;;;;;;;7.73;78.10;100481.45;214309;1277;141162;-61
2022/10/04 21:51:36;;;;;;;23.00;12.20;;;;;;;7.86;78.44;100495.55;214443;1277;141614;-64
2022/10/04 21:56:39;;;;;;;13.50;9.90;;;;;;;7.98;79.00;100499.35;214340;1277;363093;-65
2022/10/04 22:01:45;;;;;;;14.00;9.20;;;;;;;8.10;78.87;100505.15;215594;1277;142646;-65
2022/10/04 22:07:06;;;;;;;15.30;10.30;;;;;;;8.22;78.93;100510.76;215488;1277;141681;-64
2022/10/04 22:12:09;;;;;;;13.80;10.40;;;;;;;8.34;79.30;100515.37;215652;1277;142943;-63
2022/10/04 22:17:11;;;;;;;17.70;11.00;;;;;;;8.46;79.31;100515.52;215625;1276;141599;-63
2022/10/04 22:22:15;;;;;;;20.80;10.60;;;;;;;8.59;79.29;100524.73;215603;1276;141282;-63
2022/10/04 22:27:19;;;;;;;21.10;9.10;;;;;;;8.75;79.60;100529.46;215457;1276;141901;-63
2022/10/04 22:32:25;;;;;;;15.40;8.70;;;;;;;8.90;79.55;100538.92;215417;1276;142677;-63
2022/10/04 22:37:29;;;;;;;25.20;9.70;;;;;;;9.01;79.56;100539.37;215434;1276;141186;-64
2022/10/04 22:42:32;;;;;;;16.90;10.50;;;;;;;9.03;79.40;100539.13;215584;1276;140864;-64
2022/10/04 22:47:35;;;;;;;21.20;8.20;;;;;;;9.09;79.23;100537.05;215627;1276;141815;-64
2022/10/04 22:52:37;;;;;;;19.50;10.00;;;;;;;9.12;79.26;100538.32;215654;1276;140696;-64
2022/10/04 22:57:40;;;;;;;14.80;9.80;;;;;;;9.08;79.03;100536.89;215414;1277;142051;-64
2022/10/04 23:02:43;;;;;;;12.80;7.70;;;;;;;9.09;79.29;100531.45;215102;1276;142249;-64
2022/10/04 23:07:47;;;;;;;13.40;8.10;;;;;;;9.07;78.88;100524.45;214154;1276;141302;-64
2022/10/04 23:12:50;;;;;;;17.00;9.00;;;;;;;9.03;78.55;100521.37;215879;1276;142187;-65
2022/10/04 23:17:54;;;;;;;15.00;8.60;;;;;;;8.89;78.39;100514.34;215646;1276;140897;-64
2022/10/04 23:22:58;;;;;;;12.00;8.40;;;;;;;8.77;78.23;100507.46;215225;1276;141125;-65
2022/10/04 23:28:10;;;;;;;18.50;7.90;;;;;;;8.68;78.14;100499.27;215332;1276;142089;-66
2022/10/04 23:33:21;;;;;;;11.10;8.30;;;;;;;8.58;78.03;100484.23;213687;1276;140635;-63
2022/10/04 23:38:24;;;;;;;14.00;8.30;;;;;;;8.41;78.06;100486.50;215162;1276;142065;-63
2022/10/04 23:43:30;;;;;;;16.20;8.60;;;;;;;8.36;78.67;100493.88;215373;1276;140917;-63
2022/10/04 23:48:33;;;;;;;17.10;9.80;;;;;;;8.35;78.66;100490.11;214686;1275;142006;-64
2022/10/04 23:53:37;;;;;;;17.60;9.30;;;;;;;8.27;78.64;100480.52;215502;1276;141653;-64
2022/10/04 23:58:40;;;;;;;12.40;7.10;;;;;;;8.23;78.65;100486.08;215698;1276;142400;-64
